Gibson, Australia
Current Conditions -  °F | °C
As of 8:52 AM on Tuesday 21 Oct 2014 (Local Time) from YESP Reporting Station
Overcast Overcast  
Wind Chill: 61°   Ceiling: 600
Heat Index: 61°   Visibility: 4mi
Dew Point: 61°   Wind: 14mph
Humidity: 100%   Direction: 260°W
Pressure: 30.18"   Gusts: NA
Location:  33.64°S, 121.81°E
Report Text: YESP 210052Z AUTO 26012KT 6000 // OVC006 OVC011 16/16 Q1022
Loading
Personal Weather Stations






























Interactive Weather Map
Tropical Storm Tracking
New forecast layout! Learn more

10-Day Weather Forecast

Advertisements
Track Severe Weather on mobile